Ship Status Report: callsign TAMOURE

sailwx.info

Track history (hours):
 
Tides and Currents Weather Stations Pressure Air Temp Water Temp Dewpoint Dewpoint Depression Visibility Wind Speed Wind Dir Waves Ship Positions

Callsign TAMOURE (name unknown)

Last reported at 2018-Feb-17 16:00 UTC. Time now 2018-Feb-22 19:18 UTC.
Position N 16°00' W 061°42'.

Barometer 1018.5 mb

Date/timePositionNaut miles runAvg speedWind from/ knotsBaromVisibWave heightAir tempDewpointWater temp
2018-Feb-17 16:00N 16°00' W 061°42'0 0.0 1018.5
2018-Feb-17 15:00N 16°00' W 061°42'13 4.4 1019.2
2018-Feb-17 12:00N 15°48' W 061°36'13 6.7 1018.8
2018-Feb-17 10:00N 15°36' W 061°30'0 0.0 1017.6
2018-Feb-16 21:00N 15°36' W 061°30'6 3.0 1016.6
2018-Feb-16 19:00N 15°30' W 061°30'8 8.3 1016.0
2018-Feb-16 18:00N 15°24' W 061°24'12 6.0 1016.4
2018-Feb-16 16:00N 15°12' W 061°24'8 8.3 1017.8
2018-Feb-16 15:00N 15°06' W 061°18'6 6.0 1018.7
2018-Feb-16 14:00N 15°00' W 061°18'8 8.3 1018.8
2018-Feb-16 13:00N 14°54' W 061°12'6 6.0 1018.3
2018-Feb-16 12:00N 14°48' W 061°12'6 6.0 1017.8
2018-Feb-16 11:00N 14°42' W 061°12'0 0.0 1017.0
2018-Feb-15 14:00N 14°42' W 061°12'0 0.0 1018.3
2018-Feb-15 13:00N 14°42' W 061°12'8 8.3 1017.9
2018-Feb-15 12:00N 14°36' W 061°06'   1017.7
2018-Feb-09 21:00N 14°36' W 061°00'6 0.2 1014.0
2018-Feb-08 17:00N 14°36' W 061°06'6 6.0 1015.8
2018-Feb-08 16:00N 14°30' W 061°06'   1016.6
Track history (hours):
 
Tides and Currents Weather Stations Pressure Air Temp Water Temp Dewpoint Dewpoint Depression Visibility Wind Speed Wind Dir Waves Ship Positions

Callsign TAMOURE (name unknown)

Last reported at 2018-Feb-17 16:00 UTC. Time now 2018-Feb-22 19:18 UTC.
Position N 16°00' W 061°42'.

Barometer 1018.5 mb

Date/timePositionNaut miles runAvg speedWind from/ knotsBaromVisibWave heightAir tempDewpointWater temp
2018-Feb-17 16:00N 16°00' W 061°42'0 0.0 1018.5
2018-Feb-17 15:00N 16°00' W 061°42'13 4.4 1019.2
2018-Feb-17 12:00N 15°48' W 061°36'13 6.7 1018.8
2018-Feb-17 10:00N 15°36' W 061°30'0 0.0 1017.6
2018-Feb-16 21:00N 15°36' W 061°30'6 3.0 1016.6
2018-Feb-16 19:00N 15°30' W 061°30'8 8.3 1016.0
2018-Feb-16 18:00N 15°24' W 061°24'12 6.0 1016.4
2018-Feb-16 16:00N 15°12' W 061°24'8 8.3 1017.8
2018-Feb-16 15:00N 15°06' W 061°18'6 6.0 1018.7
2018-Feb-16 14:00N 15°00' W 061°18'8 8.3 1018.8
2018-Feb-16 13:00N 14°54' W 061°12'6 6.0 1018.3
2018-Feb-16 12:00N 14°48' W 061°12'6 6.0 1017.8
2018-Feb-16 11:00N 14°42' W 061°12'0 0.0 1017.0
2018-Feb-15 14:00N 14°42' W 061°12'0 0.0 1018.3
2018-Feb-15 13:00N 14°42' W 061°12'8 8.3 1017.9
2018-Feb-15 12:00N 14°36' W 061°06'   1017.7
2018-Feb-09 21:00N 14°36' W 061°00'6 0.2 1014.0
2018-Feb-08 17:00N 14°36' W 061°06'6 6.0 1015.8
2018-Feb-08 16:00N 14°30' W 061°06'   1016.6

Dump ship's entire track history